This is the latest recevied weather packets stored in our database for station/object KC9DRE. If no packets are shown the sender has not sent any weather packets the latest 10 day(s).
| Time | Temp. | Humidity | Pressure | Rain* | Wind** | Luminosity | Snow |
|---|---|---|---|---|---|---|---|
| 1788009442 | 22.22° C | 84% | 1022 hPa | 0 mm | - | 311 W/m² | - |
| 1788009137 | 21.67° C | 85% | 1021.8 hPa | 0 mm | - | 296 W/m² | - |
| 1788008833 | 21.11° C | 87% | 1021.9 hPa | 0 mm | - | 282 W/m² | - |
| 1788008532 | 20° C | 91% | 1021.9 hPa | 0 mm | - | 268 W/m² | - |
| 1788008229 | 19.44° C | 95% | 1021.9 hPa | 0 mm | - | 257 W/m² | - |
| 1788007928 | 18.89° C | 98% | 1021.9 hPa | 0 mm | - | 244 W/m² | - |
| 1788007627 | 17.78° C | 98% | 1021.8 hPa | 0 mm | - | 236 W/m² | - |
| 1788007321 | 17.78° C | 99% | 1021.9 hPa | 0 mm | - | 225 W/m² | - |
| 1788007017 | 17.22° C | 99% | 1022.1 hPa | 0 mm | - | 220 W/m² | - |
| 1788006716 | 17.22° C | 99% | 1022.2 hPa | 0 mm | - | 192 W/m² | - |
| 1788006411 | 17.22° C | 99% | 1022.3 hPa | 0 mm | - | 192 W/m² | - |
| 1788006110 | 15.56° C | 99% | 1022.3 hPa | 0 mm | - | 51 W/m² | - |
| 1788005809 | 15.56° C | 99% | 1022.3 hPa | 0 mm | - | 51 W/m² | - |
| 1788005505 | 14.44° C | 99% | 1022.1 hPa | 0 mm | - | 44 W/m² | - |
| 1788005204 | 14.44° C | 99% | 1022.2 hPa | 0 mm | - | 44 W/m² | - |
| 1788004904 | 13.33° C | 99% | 1022 hPa | 0 mm | - | 37 W/m² | - |
| 1788004603 | 13.33° C | 99% | 1021.8 hPa | 0 mm | - | 28 W/m² | - |
| 1788004303 | 13.33° C | 99% | 1021.9 hPa | 0 mm | - | 25 W/m² | - |
| 1788004002 | 12.78° C | 99% | 1021.6 hPa | 0 mm | - | 23 W/m² | - |
| 1788003701 | 12.78° C | 99% | 1021.7 hPa | 0 mm | - | 20 W/m² | - |
| 1788003396 | 12.78° C | 99% | 1021.7 hPa | 0 mm | - | 17 W/m² | - |
| 1788003091 | 12.78° C | 99% | 1021.4 hPa | 0 mm | - | 14 W/m² | - |
| 1788002791 | 12.78° C | 99% | 1021.4 hPa | 0 mm | - | 11 W/m² | - |
| 1788002486 | 12.78° C | 99% | 1021.3 hPa | 0 mm | - | 7 W/m² | - |
| 1788002182 | 12.78° C | 99% | 1021.5 hPa | 0 mm | - | 5 W/m² | - |
* Rain latest hour (hover to see other rain measurements)
** Current wind speed in m/s (hover to see current wind gust speed)